Date,TemperatureHighF,TemperatureAvgF,TemperatureLowF,DewpointHighF,DewpointAvgF,DewpointLowF,HumidityHigh,HumidityAvg,HumidityLow,PressureMaxIn,PressureMinIn,WindSpeedMaxMPH,WindSpeedAvgMPH,GustSpeedMaxMPH,PrecipitationSumIn
2013-3-1,77.0,71.1,66.8,71.0,66.5,59.0,97,86,72,0.00,0.00,23,9,27,0.17
2013-3-2,74.5,66.8,57.6,60.0,52.6,40.0,84,63,29,0.00,0.00,24,9,32,0.00
2013-3-3,74.4,63.5,53.6,54.0,50.8,48.0,89,66,41,0.00,0.00,23,8,30,0.00
2013-3-4,73.9,66.7,53.6,62.0,56.3,49.0,87,70,54,0.00,0.00,15,8,20,0.00
2013-3-5,76.5,74.7,67.0,65.0,60.9,57.0,78,63,58,0.00,0.00,17,10,23,0.00
2013-3-6,77.9,70.3,61.5,64.0,60.8,56.0,89,73,47,0.00,0.00,22,8,26,0.00
2013-3-7,77.7,69.4,60.6,67.0,62.7,59.0,95,80,64,0.00,0.00,19,8,21,0.00
2013-3-8,74.9,69.7,60.3,64.0,60.6,56.0,87,73,64,0.00,0.00,22,10,22,0.00
2013-3-9,77.3,75.8,73.8,67.0,62.6,60.0,70,64,58,0.00,0.00,19,14,23,0.00
2013-3-12,-200.0,0.0,200.0,-99.9,-99.9,-99.9,0,0,100,0.00,0.00,0,-999,0,0.00
2013-3-13,-200.0,0.0,200.0,-99.9,-99.9,-99.9,0,0,100,0.00,0.00,0,-999,0,0.00
2013-3-14,78.3,27.5,70.4,60.0,-39.8,-99.9,68,24,54,0.00,0.00,0,-623,5,0.00
2013-3-15,75.9,71.5,65.3,64.0,59.7,57.0,76,67,59,0.00,0.00,0,0,1,0.00
2013-3-16,79.0,77.0,74.8,70.0,66.1,60.0,75,69,59,0.00,0.00,0,0,0,0.00
2013-3-17,80.8,79.1,77.1,75.0,72.2,69.0,84,79,75,0.00,0.00,0,0,0,0.00
2013-3-18,84.5,81.6,79.6,78.0,76.0,75.0,87,83,78,0.00,0.00,0,0,0,0.00
2013-3-19,83.4,82.2,81.2,77.0,75.8,75.0,82,81,79,0.00,0.00,0,0,20,0.00
2013-3-20,83.5,80.2,79.7,76.0,72.7,-99.9,84,80,76,0.00,0.00,0,-12,10,0.01
2013-3-21,80.7,79.6,78.8,75.0,74.5,74.0,85,84,82,0.00,0.00,0,0,0,0.00
2013-3-22,82.8,80.6,78.9,77.0,75.3,74.0,85,84,81,0.00,0.00,0,0,0,0.00
2013-3-23,83.2,81.1,79.6,77.0,75.7,75.0,86,84,80,0.00,0.00,0,-120,0,0.00
2013-3-24,83.2,82.0,81.1,78.0,76.8,76.0,85,84,84,0.00,0.00,0,-964,0,0.00
2013-3-25,83.2,83.2,83.2,78.0,78.0,78.0,84,84,84,0.00,0.00,0,-999,0,0.00
2013-3-26,83.2,83.2,83.2,78.0,78.0,78.0,84,84,84,0.00,0.00,0,-999,0,0.00
2013-3-27,83.2,83.2,83.2,78.0,78.0,78.0,84,84,84,0.00,0.00,0,-999,0,0.00
2013-3-28,83.2,83.2,83.2,78.0,78.0,78.0,84,84,84,0.00,0.00,0,-999,0,0.00
2013-3-29,83.2,83.2,83.2,78.0,78.0,78.0,84,84,84,0.00,0.00,0,-999,0,0.00
2013-3-30,83.2,83.2,83.2,78.0,78.0,78.0,84,84,84,0.00,0.00,0,-999,0,0.00
2013-3-31,83.2,83.2,83.2,78.0,78.0,78.0,84,84,84,0.00,0.00,0,-999,0,0.00